Terminal Aerodrome Forecast
Issued by NWS

Home | Current Version | Previous Version | Text Only | Print | Product List | Glossary On
Versions: 1 2 3 4 5 6 7 8 9 10 11 12 13 14
000
FTUS42 KTAE 042327
TAFECP
TAF
KECP 042327Z 0500/0524 22008KT P6SM FEW015 SCT030
     FM050100 00000KT P6SM SCT050 SCT250
     FM051400 36004KT P6SM SCT040
     FM051800 09006KT P6SM VCTS SCT040CB=

USA.gov is the U.S. government's official web portal to all federal, state and local government web resources and services.